OOCL Nagoya — VRFX8 — position and weather

sailwx.info

Track history (hours):
 
Tides and Currents Weather Stations Pressure Air Temp Water Temp Dewpoint Dewpoint Depression Visibility Wind Speed Wind Dir Waves Ship Positions

OOCL Nagoya

Last reported at 2015-Jul-28 22:22 UTC. Time now 2015-Jul-31 07:20 UTC.
Position N 22°06' E 114°21'.

Length 261 m; draft 10 m.

Type: Cargo ship. MMSI: 477627900.

Date/timePositionNaut miles runAvg speedWind from/ knotsBaromVisibWave heightAir tempDewpointWater temp
2015-Jul-28 22:22N 22°06' E 114°21'1010.6
2015-Jul-28 21:25N 22°11' E 114°11'7 8.5
2015-Jul-28 20:33N 22°17' E 114°06'11 9.7
2015-Jul-28 19:22N 22°22' E 113°55'6 7.1
2015-Jul-28 18:33N 22°27' E 113°54'0 0.2
2015-Jul-28 17:11N 22°27' E 113°54'0 0.0
2015-Jul-28 16:29N 22°27' E 113°54'0 0.0
2015-Jul-28 15:29N 22°27' E 113°54'0 0.0
2015-Jul-28 14:29N 22°27' E 113°54'0 0.0
2015-Jul-28 13:29N 22°27' E 113°54'0 0.0
2015-Jul-28 12:29N 22°27' E 113°54'0 0.0
2015-Jul-28 11:29N 22°27' E 113°54'0 0.0
2015-Jul-28 10:29N 22°27' E 113°54'0 0.0
2015-Jul-28 09:33N 22°27' E 113°54'7 6.7
2015-Jul-28 08:32N 22°21' E 113°56'10 9.8
2015-Jul-28 07:31N 22°21' E 114°07'0 0.1
2015-Jul-28 05:19N 22°21' E 114°07'0 0.0
2015-Jul-28 00:16N 22°21' E 114°07'0 0.0
2015-Jul-27 22:28N 22°21' E 114°07'0 0.0
2015-Jul-27 21:22N 22°21' E 114°07'0 0.0
2015-Jul-27 19:19N 22°21' E 114°07'0 0.0
2015-Jul-27 18:31N 22°21' E 114°07'0 0.0
2015-Jul-27 17:28N 22°21' E 114°07'4 4.1
2015-Jul-27 16:33N 22°17' E 114°06'1111.0
2015-Jul-27 15:33N 22°09' E 114°14'1717.0
2015-Jul-27 14:33N 22°10' E 114°33'17019.8
2015-Jul-27 06:00N 22°18' E 117°36'12413.9 190 / 121010.010.8 0.530.026.027.0
2015-Jul-26 21:04N 22°30' E 119°50'713.6
2015-Jul-26 20:33N 22°31' E 119°57'1413.5
2015-Jul-26 19:33N 22°33' E 120°12'7 6.5
2015-Jul-26 18:33N 22°34' E 120°19'0 0.2
2015-Jul-26 17:32N 22°34' E 120°18'0 0.0
2015-Jul-26 16:32N 22°34' E 120°18'0 0.0
2015-Jul-26 15:32N 22°34' E 120°18'0 0.0
2015-Jul-26 14:32N 22°34' E 120°18'0 0.0
2015-Jul-26 13:32N 22°34' E 120°18'0 0.0
2015-Jul-26 12:20N 22°34' E 120°18'0 0.0
2015-Jul-26 11:32N 22°34' E 120°18'0 0.0
2015-Jul-26 10:32N 22°34' E 120°18'1 1.4
2015-Jul-26 09:32N 22°33' E 120°19'6 5.8
2015-Jul-26 08:33N 22°32' E 120°13'1615.6
2015-Jul-26 07:33N 22°46' E 120°05'  
2015-Jul-23 10:16N 33°56' E 134°56'1318.6
2015-Jul-23 09:34N 34°10' E 134°57'1515.2
2015-Jul-23 08:33N 34°24' E 135°02'1817.6
2015-Jul-23 07:33N 34°38' E 135°16'2 2.2
2015-Jul-23 06:28N 34°39' E 135°15'0 0.0
2015-Jul-23 05:28N 34°39' E 135°15'0 0.0
2015-Jul-23 04:28N 34°39' E 135°15'0 0.0
2015-Jul-23 03:22N 34°39' E 135°15'0 0.0
2015-Jul-23 02:22N 34°39' E 135°15'0 0.0
2015-Jul-23 01:28N 34°39' E 135°15'0 0.0
2015-Jul-23 00:22N 34°39' E 135°15'0 0.0
2015-Jul-22 23:22N 34°39' E 135°15'0 0.3
2015-Jul-22 22:33N 34°39' E 135°15'7 7.1
2015-Jul-22 21:34N 34°32' E 135°14'1818.1
2015-Jul-22 20:34N 34°19' E 134°60'1313.3
2015-Jul-22 19:33N 34°05' E 134°58'1110.9
2015-Jul-22 18:33N 33°54' E 134°58'243 5.3
2015-Jul-20 20:25N 35°02' E 139°40'1315.6
2015-Jul-20 19:33N 35°15' E 139°46'1212.3
2015-Jul-20 18:33N 35°27' E 139°47'9 9.0
2015-Jul-20 17:34N 35°36' E 139°47'0 0.1
2015-Jul-20 16:32N 35°36' E 139°47'0 0.0
2015-Jul-20 15:32N 35°36' E 139°47'0 0.0
2015-Jul-20 14:32N 35°36' E 139°47'0 0.0
2015-Jul-20 13:32N 35°36' E 139°47'0 0.0
2015-Jul-20 12:32N 35°36' E 139°47'0 0.0
2015-Jul-20 11:32N 35°36' E 139°47'0 0.0
2015-Jul-20 10:29N 35°36' E 139°47'0 0.0
2015-Jul-20 09:32N 35°36' E 139°47'0 0.0
2015-Jul-20 08:32N 35°36' E 139°47'0 0.0
2015-Jul-20 07:32N 35°36' E 139°47'0 0.0
2015-Jul-20 06:32N 35°36' E 139°47'0 0.0
2015-Jul-20 05:32N 35°36' E 139°47'0 0.0
2015-Jul-20 04:29N 35°36' E 139°47'1 0.8
2015-Jul-20 03:33N 35°36' E 139°47'8 7.9
2015-Jul-20 02:34N 35°28' E 139°51'1212.0
2015-Jul-20 01:33N 35°17' E 139°45'10 9.6
2015-Jul-20 00:33N 35°07' E 139°45'1515.1
2015-Jul-19 23:33N 34°57' E 139°32'1616.1
2015-Jul-19 22:33N 34°47' E 139°16'13116.4
2015-Jul-19 14:34N 33°38' E 137°01'  
Track history (hours):
 
Tides and Currents Weather Stations Pressure Air Temp Water Temp Dewpoint Dewpoint Depression Visibility Wind Speed Wind Dir Waves Ship Positions

OOCL Nagoya

Last reported at 2015-Jul-28 22:22 UTC. Time now 2015-Jul-31 07:20 UTC.
Position N 22°06' E 114°21'.

Length 261 m; draft 10 m.

Type: Cargo ship. MMSI: 477627900.

Date/timePositionNaut miles runAvg speedWind from/ knotsBaromVisibWave heightAir tempDewpointWater temp
2015-Jul-28 22:22N 22°06' E 114°21'1010.6
2015-Jul-28 21:25N 22°11' E 114°11'7 8.5
2015-Jul-28 20:33N 22°17' E 114°06'11 9.7
2015-Jul-28 19:22N 22°22' E 113°55'6 7.1
2015-Jul-28 18:33N 22°27' E 113°54'0 0.2
2015-Jul-28 17:11N 22°27' E 113°54'0 0.0
2015-Jul-28 16:29N 22°27' E 113°54'0 0.0
2015-Jul-28 15:29N 22°27' E 113°54'0 0.0
2015-Jul-28 14:29N 22°27' E 113°54'0 0.0
2015-Jul-28 13:29N 22°27' E 113°54'0 0.0
2015-Jul-28 12:29N 22°27' E 113°54'0 0.0
2015-Jul-28 11:29N 22°27' E 113°54'0 0.0
2015-Jul-28 10:29N 22°27' E 113°54'0 0.0
2015-Jul-28 09:33N 22°27' E 113°54'7 6.7
2015-Jul-28 08:32N 22°21' E 113°56'10 9.8
2015-Jul-28 07:31N 22°21' E 114°07'0 0.1
2015-Jul-28 05:19N 22°21' E 114°07'0 0.0
2015-Jul-28 00:16N 22°21' E 114°07'0 0.0
2015-Jul-27 22:28N 22°21' E 114°07'0 0.0
2015-Jul-27 21:22N 22°21' E 114°07'0 0.0
2015-Jul-27 19:19N 22°21' E 114°07'0 0.0
2015-Jul-27 18:31N 22°21' E 114°07'0 0.0
2015-Jul-27 17:28N 22°21' E 114°07'4 4.1
2015-Jul-27 16:33N 22°17' E 114°06'1111.0
2015-Jul-27 15:33N 22°09' E 114°14'1717.0
2015-Jul-27 14:33N 22°10' E 114°33'17019.8
2015-Jul-27 06:00N 22°18' E 117°36'12413.9 190 / 121010.010.8 0.530.026.027.0
2015-Jul-26 21:04N 22°30' E 119°50'713.6
2015-Jul-26 20:33N 22°31' E 119°57'1413.5
2015-Jul-26 19:33N 22°33' E 120°12'7 6.5
2015-Jul-26 18:33N 22°34' E 120°19'0 0.2
2015-Jul-26 17:32N 22°34' E 120°18'0 0.0
2015-Jul-26 16:32N 22°34' E 120°18'0 0.0
2015-Jul-26 15:32N 22°34' E 120°18'0 0.0
2015-Jul-26 14:32N 22°34' E 120°18'0 0.0
2015-Jul-26 13:32N 22°34' E 120°18'0 0.0
2015-Jul-26 12:20N 22°34' E 120°18'0 0.0
2015-Jul-26 11:32N 22°34' E 120°18'0 0.0
2015-Jul-26 10:32N 22°34' E 120°18'1 1.4
2015-Jul-26 09:32N 22°33' E 120°19'6 5.8
2015-Jul-26 08:33N 22°32' E 120°13'1615.6
2015-Jul-26 07:33N 22°46' E 120°05'  
2015-Jul-23 10:16N 33°56' E 134°56'1318.6
2015-Jul-23 09:34N 34°10' E 134°57'1515.2
2015-Jul-23 08:33N 34°24' E 135°02'1817.6
2015-Jul-23 07:33N 34°38' E 135°16'2 2.2
2015-Jul-23 06:28N 34°39' E 135°15'0 0.0
2015-Jul-23 05:28N 34°39' E 135°15'0 0.0
2015-Jul-23 04:28N 34°39' E 135°15'0 0.0
2015-Jul-23 03:22N 34°39' E 135°15'0 0.0
2015-Jul-23 02:22N 34°39' E 135°15'0 0.0
2015-Jul-23 01:28N 34°39' E 135°15'0 0.0
2015-Jul-23 00:22N 34°39' E 135°15'0 0.0
2015-Jul-22 23:22N 34°39' E 135°15'0 0.3
2015-Jul-22 22:33N 34°39' E 135°15'7 7.1
2015-Jul-22 21:34N 34°32' E 135°14'1818.1
2015-Jul-22 20:34N 34°19' E 134°60'1313.3
2015-Jul-22 19:33N 34°05' E 134°58'1110.9
2015-Jul-22 18:33N 33°54' E 134°58'243 5.3
2015-Jul-20 20:25N 35°02' E 139°40'1315.6
2015-Jul-20 19:33N 35°15' E 139°46'1212.3
2015-Jul-20 18:33N 35°27' E 139°47'9 9.0
2015-Jul-20 17:34N 35°36' E 139°47'0 0.1
2015-Jul-20 16:32N 35°36' E 139°47'0 0.0
2015-Jul-20 15:32N 35°36' E 139°47'0 0.0
2015-Jul-20 14:32N 35°36' E 139°47'0 0.0
2015-Jul-20 13:32N 35°36' E 139°47'0 0.0
2015-Jul-20 12:32N 35°36' E 139°47'0 0.0
2015-Jul-20 11:32N 35°36' E 139°47'0 0.0
2015-Jul-20 10:29N 35°36' E 139°47'0 0.0
2015-Jul-20 09:32N 35°36' E 139°47'0 0.0
2015-Jul-20 08:32N 35°36' E 139°47'0 0.0
2015-Jul-20 07:32N 35°36' E 139°47'0 0.0
2015-Jul-20 06:32N 35°36' E 139°47'0 0.0
2015-Jul-20 05:32N 35°36' E 139°47'0 0.0
2015-Jul-20 04:29N 35°36' E 139°47'1 0.8
2015-Jul-20 03:33N 35°36' E 139°47'8 7.9
2015-Jul-20 02:34N 35°28' E 139°51'1212.0
2015-Jul-20 01:33N 35°17' E 139°45'10 9.6
2015-Jul-20 00:33N 35°07' E 139°45'1515.1
2015-Jul-19 23:33N 34°57' E 139°32'1616.1
2015-Jul-19 22:33N 34°47' E 139°16'13116.4
2015-Jul-19 14:34N 33°38' E 137°01'  

Dump ship's entire track history